sensor_id;sensor_type;location;lat;lon;timestamp;P1;durP1;ratioP1;P2;durP2;ratioP2
75413;SDS011;64758;52.122;5.404;2024-02-16T00:01:48;4.70;;;2.40;;
75413;SDS011;64758;52.122;5.404;2024-02-16T00:04:14;4.32;;;2.20;;
75413;SDS011;64758;52.122;5.404;2024-02-16T00:06:41;4.80;;;1.98;;
75413;SDS011;64758;52.122;5.404;2024-02-16T00:09:07;4.07;;;2.20;;
75413;SDS011;64758;52.122;5.404;2024-02-16T00:11:36;4.03;;;2.00;;
75413;SDS011;64758;52.122;5.404;2024-02-16T00:14:03;3.53;;;2.53;;
75413;SDS011;64758;52.122;5.404;2024-02-16T00:16:30;3.75;;;1.95;;
75413;SDS011;64758;52.122;5.404;2024-02-16T00:18:56;4.47;;;1.95;;
75413;SDS011;64758;52.122;5.404;2024-02-16T00:21:23;6.38;;;2.20;;
75413;SDS011;64758;52.122;5.404;2024-02-16T00:23:50;4.23;;;1.83;;
75413;SDS011;64758;52.122;5.404;2024-02-16T00:26:17;5.75;;;2.10;;
75413;SDS011;64758;52.122;5.404;2024-02-16T00:28:44;1.95;;;1.70;;
75413;SDS011;64758;52.122;5.404;2024-02-16T00:31:13;4.22;;;1.85;;
75413;SDS011;64758;52.122;5.404;2024-02-16T00:33:40;4.18;;;1.92;;
75413;SDS011;64758;52.122;5.404;2024-02-16T00:36:08;4.53;;;1.60;;
75413;SDS011;64758;52.122;5.404;2024-02-16T00:38:36;3.90;;;1.88;;
75413;SDS011;64758;52.122;5.404;2024-02-16T00:41:03;5.40;;;1.80;;
75413;SDS011;64758;52.122;5.404;2024-02-16T00:43:31;4.70;;;2.15;;
75413;SDS011;64758;52.122;5.404;2024-02-16T00:45:57;4.53;;;2.55;;
75413;SDS011;64758;52.122;5.404;2024-02-16T00:48:24;7.90;;;1.90;;
75413;SDS011;64758;52.122;5.404;2024-02-16T00:50:50;4.55;;;1.80;;
75413;SDS011;64758;52.122;5.404;2024-02-16T00:53:17;5.10;;;2.20;;
75413;SDS011;64758;52.122;5.404;2024-02-16T00:55:45;4.43;;;2.10;;
75413;SDS011;64758;52.122;5.404;2024-02-16T00:58:12;2.67;;;1.73;;
75413;SDS011;64758;52.122;5.404;2024-02-16T01:00:39;5.13;;;1.90;;
75413;SDS011;64758;52.122;5.404;2024-02-16T01:03:05;3.83;;;2.08;;
75413;SDS011;64758;52.122;5.404;2024-02-16T01:05:32;4.50;;;2.22;;
75413;SDS011;64758;52.122;5.404;2024-02-16T01:07:58;4.25;;;1.92;;
75413;SDS011;64758;52.122;5.404;2024-02-16T01:10:25;4.10;;;2.20;;
75413;SDS011;64758;52.122;5.404;2024-02-16T01:12:51;4.40;;;2.10;;
75413;SDS011;64758;52.122;5.404;2024-02-16T01:15:18;5.25;;;2.10;;
75413;SDS011;64758;52.122;5.404;2024-02-16T01:17:45;3.70;;;1.77;;
75413;SDS011;64758;52.122;5.404;2024-02-16T01:20:13;4.70;;;1.90;;
75413;SDS011;64758;52.122;5.404;2024-02-16T01:22:39;4.63;;;2.08;;
75413;SDS011;64758;52.122;5.404;2024-02-16T01:25:07;5.57;;;2.47;;
75413;SDS011;64758;52.122;5.404;2024-02-16T01:27:35;4.07;;;2.10;;
75413;SDS011;64758;52.122;5.404;2024-02-16T01:30:02;7.28;;;2.05;;
75413;SDS011;64758;52.122;5.404;2024-02-16T01:32:29;3.35;;;2.38;;
75413;SDS011;64758;52.122;5.404;2024-02-16T01:34:56;5.13;;;2.40;;
75413;SDS011;64758;52.122;5.404;2024-02-16T01:37:24;4.30;;;2.03;;
75413;SDS011;64758;52.122;5.404;2024-02-16T01:39:51;3.35;;;2.10;;
75413;SDS011;64758;52.122;5.404;2024-02-16T01:42:17;4.20;;;2.03;;
75413;SDS011;64758;52.122;5.404;2024-02-16T01:44:44;4.43;;;2.08;;
75413;SDS011;64758;52.122;5.404;2024-02-16T01:47:10;4.05;;;2.20;;
75413;SDS011;64758;52.122;5.404;2024-02-16T01:49:38;2.70;;;1.73;;
75413;SDS011;64758;52.122;5.404;2024-02-16T01:52:05;3.00;;;1.83;;
75413;SDS011;64758;52.122;5.404;2024-02-16T01:54:32;6.03;;;2.40;;
75413;SDS011;64758;52.122;5.404;2024-02-16T01:56:59;4.88;;;2.35;;
75413;SDS011;64758;52.122;5.404;2024-02-16T01:59:27;4.43;;;2.10;;
75413;SDS011;64758;52.122;5.404;2024-02-16T02:01:54;4.87;;;2.13;;
75413;SDS011;64758;52.122;5.404;2024-02-16T02:04:20;4.68;;;2.20;;
75413;SDS011;64758;52.122;5.404;2024-02-16T02:06:47;2.65;;;1.90;;
75413;SDS011;64758;52.122;5.404;2024-02-16T02:09:14;5.05;;;2.47;;
75413;SDS011;64758;52.122;5.404;2024-02-16T02:11:40;3.78;;;2.22;;
75413;SDS011;64758;52.122;5.404;2024-02-16T02:14:07;3.97;;;2.40;;
75413;SDS011;64758;52.122;5.404;2024-02-16T02:16:33;5.03;;;2.30;;
75413;SDS011;64758;52.122;5.404;2024-02-16T02:19:13;6.10;;;2.28;;
75413;SDS011;64758;52.122;5.404;2024-02-16T02:21:39;5.15;;;2.17;;
75413;SDS011;64758;52.122;5.404;2024-02-16T02:24:06;4.82;;;2.30;;
75413;SDS011;64758;52.122;5.404;2024-02-16T02:26:35;4.13;;;1.97;;
75413;SDS011;64758;52.122;5.404;2024-02-16T02:29:02;4.00;;;2.03;;
75413;SDS011;64758;52.122;5.404;2024-02-16T02:31:28;4.25;;;2.05;;
75413;SDS011;64758;52.122;5.404;2024-02-16T02:33:55;4.43;;;2.17;;
75413;SDS011;64758;52.122;5.404;2024-02-16T02:36:22;3.33;;;1.95;;
75413;SDS011;64758;52.122;5.404;2024-02-16T02:38:49;4.43;;;2.03;;
75413;SDS011;64758;52.122;5.404;2024-02-16T02:41:16;4.93;;;2.20;;
75413;SDS011;64758;52.122;5.404;2024-02-16T02:43:45;6.25;;;1.90;;
75413;SDS011;64758;52.122;5.404;2024-02-16T02:46:15;3.97;;;1.90;;
75413;SDS011;64758;52.122;5.404;2024-02-16T02:48:43;3.70;;;2.08;;
75413;SDS011;64758;52.122;5.404;2024-02-16T02:51:17;5.83;;;2.43;;
75413;SDS011;64758;52.122;5.404;2024-02-16T02:53:43;4.25;;;2.20;;
75413;SDS011;64758;52.122;5.404;2024-02-16T02:56:10;3.35;;;2.00;;
75413;SDS011;64758;52.122;5.404;2024-02-16T02:58:38;4.30;;;1.92;;
75413;SDS011;64758;52.122;5.404;2024-02-16T03:01:05;5.13;;;2.20;;
75413;SDS011;64758;52.122;5.404;2024-02-16T03:03:34;2.97;;;1.90;;
75413;SDS011;64758;52.122;5.404;2024-02-16T03:06:01;5.05;;;2.30;;
75413;SDS011;64758;52.122;5.404;2024-02-16T03:08:27;8.57;;;2.40;;
75413;SDS011;64758;52.122;5.404;2024-02-16T03:10:54;3.85;;;2.30;;
75413;SDS011;64758;52.122;5.404;2024-02-16T03:13:21;3.92;;;2.00;;
75413;SDS011;64758;52.122;5.404;2024-02-16T03:15:47;5.10;;;2.07;;
75413;SDS011;64758;52.122;5.404;2024-02-16T03:18:14;5.55;;;2.17;;
75413;SDS011;64758;52.122;5.404;2024-02-16T03:20:41;4.80;;;1.88;;
75413;SDS011;64758;52.122;5.404;2024-02-16T03:23:12;4.25;;;2.20;;
75413;SDS011;64758;52.122;5.404;2024-02-16T03:25:38;5.53;;;2.60;;
75413;SDS011;64758;52.122;5.404;2024-02-16T03:28:07;3.10;;;2.00;;
75413;SDS011;64758;52.122;5.404;2024-02-16T03:30:36;3.78;;;2.20;;
75413;SDS011;64758;52.122;5.404;2024-02-16T03:33:02;3.15;;;2.28;;
75413;SDS011;64758;52.122;5.404;2024-02-16T03:35:30;4.07;;;1.98;;
75413;SDS011;64758;52.122;5.404;2024-02-16T03:37:56;8.20;;;2.40;;
75413;SDS011;64758;52.122;5.404;2024-02-16T03:40:23;3.97;;;2.10;;
75413;SDS011;64758;52.122;5.404;2024-02-16T03:42:51;2.80;;;2.00;;
75413;SDS011;64758;52.122;5.404;2024-02-16T03:45:18;3.60;;;2.22;;
75413;SDS011;64758;52.122;5.404;2024-02-16T03:47:45;4.10;;;1.90;;
75413;SDS011;64758;52.122;5.404;2024-02-16T03:50:12;3.35;;;2.20;;
75413;SDS011;64758;52.122;5.404;2024-02-16T03:52:40;2.87;;;2.00;;
75413;SDS011;64758;52.122;5.404;2024-02-16T03:55:07;3.33;;;1.98;;
75413;SDS011;64758;52.122;5.404;2024-02-16T03:57:34;5.25;;;2.08;;
75413;SDS011;64758;52.122;5.404;2024-02-16T04:00:00;3.45;;;2.17;;
75413;SDS011;64758;52.122;5.404;2024-02-16T04:02:28;4.38;;;2.20;;
75413;SDS011;64758;52.122;5.404;2024-02-16T04:04:55;6.60;;;2.40;;
75413;SDS011;64758;52.122;5.404;2024-02-16T04:07:21;2.78;;;2.08;;
75413;SDS011;64758;52.122;5.404;2024-02-16T04:09:48;4.82;;;2.22;;
75413;SDS011;64758;52.122;5.404;2024-02-16T04:12:14;3.60;;;1.90;;
75413;SDS011;64758;52.122;5.404;2024-02-16T04:14:41;4.15;;;2.13;;
75413;SDS011;64758;52.122;5.404;2024-02-16T04:17:09;4.93;;;1.93;;
75413;SDS011;64758;52.122;5.404;2024-02-16T04:19:36;4.85;;;2.13;;
75413;SDS011;64758;52.122;5.404;2024-02-16T04:22:03;4.07;;;2.30;;
75413;SDS011;64758;52.122;5.404;2024-02-16T04:24:30;5.20;;;2.20;;
75413;SDS011;64758;52.122;5.404;2024-02-16T04:26:57;5.70;;;2.25;;
75413;SDS011;64758;52.122;5.404;2024-02-16T04:29:23;3.30;;;1.80;;
75413;SDS011;64758;52.122;5.404;2024-02-16T04:31:50;5.50;;;2.10;;
75413;SDS011;64758;52.122;5.404;2024-02-16T04:34:16;3.75;;;2.20;;
75413;SDS011;64758;52.122;5.404;2024-02-16T04:36:43;5.32;;;2.35;;
75413;SDS011;64758;52.122;5.404;2024-02-16T04:39:10;4.50;;;2.80;;
75413;SDS011;64758;52.122;5.404;2024-02-16T04:41:36;4.20;;;2.50;;
75413;SDS011;64758;52.122;5.404;2024-02-16T04:44:03;3.95;;;2.40;;
75413;SDS011;64758;52.122;5.404;2024-02-16T04:46:29;4.13;;;2.35;;
75413;SDS011;64758;52.122;5.404;2024-02-16T04:48:56;3.30;;;2.28;;
75413;SDS011;64758;52.122;5.404;2024-02-16T04:51:23;3.85;;;2.15;;
75413;SDS011;64758;52.122;5.404;2024-02-16T04:53:50;3.97;;;2.10;;
75413;SDS011;64758;52.122;5.404;2024-02-16T04:56:16;6.03;;;2.40;;
75413;SDS011;64758;52.122;5.404;2024-02-16T04:58:43;5.65;;;2.40;;
75413;SDS011;64758;52.122;5.404;2024-02-16T05:01:09;3.33;;;2.45;;
75413;SDS011;64758;52.122;5.404;2024-02-16T05:03:36;4.45;;;2.50;;
75413;SDS011;64758;52.122;5.404;2024-02-16T05:06:03;4.07;;;2.10;;
75413;SDS011;64758;52.122;5.404;2024-02-16T05:08:30;4.43;;;2.22;;
75413;SDS011;64758;52.122;5.404;2024-02-16T05:10:57;4.53;;;2.25;;
75413;SDS011;64758;52.122;5.404;2024-02-16T05:13:23;4.43;;;2.20;;
75413;SDS011;64758;52.122;5.404;2024-02-16T05:15:52;9.23;;;2.50;;
75413;SDS011;64758;52.122;5.404;2024-02-16T05:18:21;3.27;;;2.17;;
75413;SDS011;64758;52.122;5.404;2024-02-16T05:20:48;5.50;;;2.55;;
75413;SDS011;64758;52.122;5.404;2024-02-16T05:23:15;3.55;;;2.03;;
75413;SDS011;64758;52.122;5.404;2024-02-16T05:25:42;6.82;;;2.45;;
75413;SDS011;64758;52.122;5.404;2024-02-16T05:28:08;6.40;;;2.22;;
75413;SDS011;64758;52.122;5.404;2024-02-16T05:30:35;3.77;;;2.17;;
75413;SDS011;64758;52.122;5.404;2024-02-16T05:33:02;5.38;;;2.33;;
75413;SDS011;64758;52.122;5.404;2024-02-16T05:35:29;6.90;;;2.20;;
75413;SDS011;64758;52.122;5.404;2024-02-16T05:38:00;4.18;;;2.45;;
75413;SDS011;64758;52.122;5.404;2024-02-16T05:40:33;4.82;;;2.60;;
75413;SDS011;64758;52.122;5.404;2024-02-16T05:43:11;5.33;;;2.30;;
75413;SDS011;64758;52.122;5.404;2024-02-16T05:45:38;3.63;;;2.17;;
75413;SDS011;64758;52.122;5.404;2024-02-16T05:48:08;4.35;;;2.30;;
75413;SDS011;64758;52.122;5.404;2024-02-16T05:50:36;4.60;;;2.20;;
75413;SDS011;64758;52.122;5.404;2024-02-16T05:53:03;5.95;;;2.25;;
75413;SDS011;64758;52.122;5.404;2024-02-16T05:55:30;3.97;;;2.17;;
75413;SDS011;64758;52.122;5.404;2024-02-16T05:57:56;5.35;;;2.08;;
75413;SDS011;64758;52.122;5.404;2024-02-16T06:00:23;4.72;;;2.47;;
75413;SDS011;64758;52.122;5.404;2024-02-16T06:02:50;7.63;;;2.40;;
75413;SDS011;64758;52.122;5.404;2024-02-16T06:05:16;3.70;;;2.33;;
75413;SDS011;64758;52.122;5.404;2024-02-16T06:07:43;4.43;;;2.03;;
75413;SDS011;64758;52.122;5.404;2024-02-16T06:10:09;4.03;;;2.63;;
75413;SDS011;64758;52.122;5.404;2024-02-16T06:12:38;5.03;;;2.08;;
75413;SDS011;64758;52.122;5.404;2024-02-16T06:15:05;5.35;;;2.40;;
75413;SDS011;64758;52.122;5.404;2024-02-16T06:17:32;5.13;;;2.05;;
75413;SDS011;64758;52.122;5.404;2024-02-16T06:19:59;5.10;;;2.03;;
75413;SDS011;64758;52.122;5.404;2024-02-16T06:22:27;4.45;;;2.17;;
75413;SDS011;64758;52.122;5.404;2024-02-16T06:24:53;3.30;;;2.13;;
75413;SDS011;64758;52.122;5.404;2024-02-16T06:27:20;7.05;;;2.22;;
75413;SDS011;64758;52.122;5.404;2024-02-16T06:29:47;5.93;;;2.40;;
75413;SDS011;64758;52.122;5.404;2024-02-16T06:32:13;3.50;;;1.80;;
75413;SDS011;64758;52.122;5.404;2024-02-16T06:34:40;5.90;;;3.28;;
75413;SDS011;64758;52.122;5.404;2024-02-16T06:37:07;4.22;;;2.10;;
75413;SDS011;64758;52.122;5.404;2024-02-16T06:39:34;3.33;;;1.90;;
75413;SDS011;64758;52.122;5.404;2024-02-16T06:42:00;2.65;;;1.90;;
75413;SDS011;64758;52.122;5.404;2024-02-16T06:44:27;3.37;;;1.70;;
75413;SDS011;64758;52.122;5.404;2024-02-16T06:46:53;3.42;;;1.75;;
75413;SDS011;64758;52.122;5.404;2024-02-16T06:49:20;4.03;;;2.20;;
75413;SDS011;64758;52.122;5.404;2024-02-16T06:51:47;3.63;;;2.22;;
75413;SDS011;64758;52.122;5.404;2024-02-16T06:54:13;4.20;;;2.22;;
75413;SDS011;64758;52.122;5.404;2024-02-16T06:56:41;4.80;;;2.07;;
75413;SDS011;64758;52.122;5.404;2024-02-16T06:59:07;4.90;;;2.30;;
75413;SDS011;64758;52.122;5.404;2024-02-16T07:01:35;4.30;;;2.15;;
75413;SDS011;64758;52.122;5.404;2024-02-16T07:04:02;4.72;;;2.10;;
75413;SDS011;64758;52.122;5.404;2024-02-16T07:06:29;4.20;;;1.98;;
75413;SDS011;64758;52.122;5.404;2024-02-16T07:08:56;7.13;;;2.10;;
75413;SDS011;64758;52.122;5.404;2024-02-16T07:11:22;4.85;;;2.20;;
75413;SDS011;64758;52.122;5.404;2024-02-16T07:13:49;3.70;;;2.08;;
75413;SDS011;64758;52.122;5.404;2024-02-16T07:16:16;6.55;;;3.00;;
75413;SDS011;64758;52.122;5.404;2024-02-16T07:18:44;4.78;;;2.17;;
75413;SDS011;64758;52.122;5.404;2024-02-16T07:21:11;5.73;;;2.43;;
75413;SDS011;64758;52.122;5.404;2024-02-16T07:23:37;4.82;;;2.13;;
75413;SDS011;64758;52.122;5.404;2024-02-16T07:26:04;5.60;;;2.60;;
75413;SDS011;64758;52.122;5.404;2024-02-16T07:28:33;5.03;;;2.88;;
75413;SDS011;64758;52.122;5.404;2024-02-16T07:31:00;5.60;;;2.83;;
75413;SDS011;64758;52.122;5.404;2024-02-16T07:33:26;4.73;;;2.77;;
75413;SDS011;64758;52.122;5.404;2024-02-16T07:35:55;5.50;;;2.20;;
75413;SDS011;64758;52.122;5.404;2024-02-16T07:38:22;5.05;;;2.40;;
75413;SDS011;64758;52.122;5.404;2024-02-16T07:40:49;5.13;;;1.90;;
75413;SDS011;64758;52.122;5.404;2024-02-16T07:43:17;4.70;;;2.10;;
75413;SDS011;64758;52.122;5.404;2024-02-16T07:45:44;2.60;;;1.90;;
75413;SDS011;64758;52.122;5.404;2024-02-16T07:48:11;7.30;;;2.30;;
75413;SDS011;64758;52.122;5.404;2024-02-16T07:50:38;5.47;;;2.50;;
75413;SDS011;64758;52.122;5.404;2024-02-16T07:53:04;3.90;;;2.33;;
75413;SDS011;64758;52.122;5.404;2024-02-16T07:55:31;3.20;;;2.15;;
75413;SDS011;64758;52.122;5.404;2024-02-16T07:57:58;4.43;;;2.30;;
75413;SDS011;64758;52.122;5.404;2024-02-16T08:00:25;4.30;;;2.10;;
75413;SDS011;64758;52.122;5.404;2024-02-16T08:02:51;5.55;;;3.17;;
75413;SDS011;64758;52.122;5.404;2024-02-16T08:05:18;4.47;;;2.17;;
75413;SDS011;64758;52.122;5.404;2024-02-16T08:07:46;5.18;;;2.63;;
75413;SDS011;64758;52.122;5.404;2024-02-16T08:10:13;5.63;;;2.13;;
75413;SDS011;64758;52.122;5.404;2024-02-16T08:12:40;2.85;;;2.13;;
75413;SDS011;64758;52.122;5.404;2024-02-16T08:15:07;6.53;;;2.63;;
75413;SDS011;64758;52.122;5.404;2024-02-16T08:17:34;5.93;;;2.30;;
75413;SDS011;64758;52.122;5.404;2024-02-16T08:20:01;5.25;;;2.33;;
75413;SDS011;64758;52.122;5.404;2024-02-16T08:22:28;3.23;;;2.10;;
75413;SDS011;64758;52.122;5.404;2024-02-16T08:24:55;3.92;;;2.08;;
75413;SDS011;64758;52.122;5.404;2024-02-16T08:27:21;3.70;;;2.38;;
75413;SDS011;64758;52.122;5.404;2024-02-16T08:29:48;5.75;;;2.50;;
75413;SDS011;64758;52.122;5.404;2024-02-16T08:32:15;4.03;;;2.33;;
75413;SDS011;64758;52.122;5.404;2024-02-16T08:34:43;4.73;;;2.57;;
75413;SDS011;64758;52.122;5.404;2024-02-16T08:37:10;3.72;;;2.40;;
75413;SDS011;64758;52.122;5.404;2024-02-16T08:39:37;4.00;;;2.42;;
75413;SDS011;64758;52.122;5.404;2024-02-16T08:42:05;3.40;;;2.15;;
75413;SDS011;64758;52.122;5.404;2024-02-16T08:44:32;4.03;;;2.17;;
75413;SDS011;64758;52.122;5.404;2024-02-16T08:46:58;3.83;;;2.47;;
75413;SDS011;64758;52.122;5.404;2024-02-16T08:49:25;5.60;;;2.80;;
75413;SDS011;64758;52.122;5.404;2024-02-16T08:51:52;8.23;;;2.58;;
75413;SDS011;64758;52.122;5.404;2024-02-16T08:54:18;5.38;;;2.47;;
75413;SDS011;64758;52.122;5.404;2024-02-16T08:56:45;3.70;;;2.47;;
75413;SDS011;64758;52.122;5.404;2024-02-16T08:59:12;4.67;;;2.80;;
75413;SDS011;64758;52.122;5.404;2024-02-16T09:01:39;4.75;;;2.35;;
75413;SDS011;64758;52.122;5.404;2024-02-16T09:04:06;5.93;;;3.20;;
75413;SDS011;64758;52.122;5.404;2024-02-16T09:06:33;5.90;;;2.55;;
75413;SDS011;64758;52.122;5.404;2024-02-16T09:09:03;4.80;;;2.45;;
75413;SDS011;64758;52.122;5.404;2024-02-16T09:11:29;5.17;;;2.60;;
75413;SDS011;64758;52.122;5.404;2024-02-16T09:13:56;5.88;;;2.75;;
75413;SDS011;64758;52.122;5.404;2024-02-16T09:16:23;5.93;;;2.30;;
75413;SDS011;64758;52.122;5.404;2024-02-16T09:18:51;7.10;;;2.25;;
75413;SDS011;64758;52.122;5.404;2024-02-16T09:21:18;5.90;;;2.80;;
75413;SDS011;64758;52.122;5.404;2024-02-16T09:23:45;5.37;;;2.77;;
75413;SDS011;64758;52.122;5.404;2024-02-16T09:26:12;8.38;;;3.30;;
75413;SDS011;64758;52.122;5.404;2024-02-16T09:28:39;5.60;;;3.08;;
75413;SDS011;64758;52.122;5.404;2024-02-16T09:31:13;4.93;;;2.80;;
75413;SDS011;64758;52.122;5.404;2024-02-16T09:33:40;5.38;;;2.80;;
75413;SDS011;64758;52.122;5.404;2024-02-16T09:36:07;5.57;;;2.73;;
75413;SDS011;64758;52.122;5.404;2024-02-16T09:38:34;8.30;;;3.15;;
75413;SDS011;64758;52.122;5.404;2024-02-16T09:41:00;9.23;;;3.63;;
75413;SDS011;64758;52.122;5.404;2024-02-16T09:43:29;5.90;;;3.50;;
75413;SDS011;64758;52.122;5.404;2024-02-16T09:45:57;7.63;;;3.25;;
75413;SDS011;64758;52.122;5.404;2024-02-16T09:48:25;7.20;;;3.33;;
75413;SDS011;64758;52.122;5.404;2024-02-16T09:50:57;5.07;;;3.25;;
75413;SDS011;64758;52.122;5.404;2024-02-16T09:53:28;8.75;;;3.60;;
75413;SDS011;64758;52.122;5.404;2024-02-16T09:55:55;5.65;;;2.95;;
75413;SDS011;64758;52.122;5.404;2024-02-16T09:58:22;5.22;;;3.28;;
75413;SDS011;64758;52.122;5.404;2024-02-16T10:03:25;7.28;;;3.90;;
75413;SDS011;64758;52.122;5.404;2024-02-16T10:08:34;7.65;;;3.63;;
75413;SDS011;64758;52.122;5.404;2024-02-16T10:11:01;6.78;;;3.58;;
75413;SDS011;64758;52.122;5.404;2024-02-16T10:13:30;7.43;;;3.83;;
75413;SDS011;64758;52.122;5.404;2024-02-16T10:16:06;6.25;;;3.67;;
75413;SDS011;64758;52.122;5.404;2024-02-16T10:18:36;6.07;;;3.17;;
75413;SDS011;64758;52.122;5.404;2024-02-16T10:21:04;6.30;;;3.60;;
75413;SDS011;64758;52.122;5.404;2024-02-16T10:23:31;5.32;;;3.53;;
75413;SDS011;64758;52.122;5.404;2024-02-16T10:26:01;7.57;;;3.77;;
75413;SDS011;64758;52.122;5.404;2024-02-16T10:28:28;6.00;;;3.65;;
75413;SDS011;64758;52.122;5.404;2024-02-16T10:30:58;7.53;;;4.05;;
75413;SDS011;64758;52.122;5.404;2024-02-16T10:33:31;6.43;;;4.15;;
75413;SDS011;64758;52.122;5.404;2024-02-16T10:35:58;7.80;;;4.18;;
75413;SDS011;64758;52.122;5.404;2024-02-16T10:38:29;7.73;;;3.97;;
75413;SDS011;64758;52.122;5.404;2024-02-16T10:40:56;6.32;;;4.03;;
75413;SDS011;64758;52.122;5.404;2024-02-16T10:43:27;5.28;;;3.72;;
75413;SDS011;64758;52.122;5.404;2024-02-16T10:45:55;6.78;;;4.35;;
75413;SDS011;64758;52.122;5.404;2024-02-16T10:48:23;8.23;;;4.35;;
75413;SDS011;64758;52.122;5.404;2024-02-16T10:50:50;11.60;;;4.30;;
75413;SDS011;64758;52.122;5.404;2024-02-16T10:55:49;7.55;;;4.28;;
75413;SDS011;64758;52.122;5.404;2024-02-16T10:58:16;8.70;;;4.90;;
75413;SDS011;64758;52.122;5.404;2024-02-16T11:00:48;7.28;;;4.45;;
75413;SDS011;64758;52.122;5.404;2024-02-16T11:03:16;12.27;;;4.33;;
75413;SDS011;64758;52.122;5.404;2024-02-16T11:05:44;11.32;;;4.82;;
75413;SDS011;64758;52.122;5.404;2024-02-16T11:08:13;9.13;;;5.07;;
75413;SDS011;64758;52.122;5.404;2024-02-16T11:10:54;7.43;;;4.90;;
75413;SDS011;64758;52.122;5.404;2024-02-16T11:13:32;9.27;;;5.80;;
75413;SDS011;64758;52.122;5.404;2024-02-16T11:16:01;8.13;;;5.67;;
75413;SDS011;64758;52.122;5.404;2024-02-16T11:18:29;10.13;;;6.40;;
75413;SDS011;64758;52.122;5.404;2024-02-16T11:21:01;6.22;;;5.15;;
75413;SDS011;64758;52.122;5.404;2024-02-16T11:23:29;9.73;;;5.95;;
75413;SDS011;64758;52.122;5.404;2024-02-16T11:26:03;8.05;;;5.88;;
75413;SDS011;64758;52.122;5.404;2024-02-16T11:28:35;8.30;;;5.40;;
75413;SDS011;64758;52.122;5.404;2024-02-16T11:31:02;8.18;;;5.55;;
75413;SDS011;64758;52.122;5.404;2024-02-16T11:33:29;11.20;;;5.28;;
75413;SDS011;64758;52.122;5.404;2024-02-16T11:35:58;9.30;;;5.35;;
75413;SDS011;64758;52.122;5.404;2024-02-16T11:38:26;8.00;;;5.35;;
75413;SDS011;64758;52.122;5.404;2024-02-16T11:40:56;9.23;;;5.60;;
75413;SDS011;64758;52.122;5.404;2024-02-16T11:43:25;9.98;;;6.20;;
75413;SDS011;64758;52.122;5.404;2024-02-16T11:45:52;8.43;;;6.07;;
75413;SDS011;64758;52.122;5.404;2024-02-16T11:48:20;10.98;;;5.88;;
75413;SDS011;64758;52.122;5.404;2024-02-16T11:50:58;8.40;;;5.78;;
75413;SDS011;64758;52.122;5.404;2024-02-16T11:53:30;7.60;;;5.63;;
75413;SDS011;64758;52.122;5.404;2024-02-16T11:55:57;9.20;;;5.97;;
75413;SDS011;64758;52.122;5.404;2024-02-16T11:58:24;11.70;;;6.13;;
75413;SDS011;64758;52.122;5.404;2024-02-16T12:00:51;8.90;;;5.60;;
75413;SDS011;64758;52.122;5.404;2024-02-16T12:03:27;10.45;;;6.82;;
75413;SDS011;64758;52.122;5.404;2024-02-16T12:05:55;9.43;;;5.83;;
75413;SDS011;64758;52.122;5.404;2024-02-16T12:08:23;10.57;;;5.55;;
75413;SDS011;64758;52.122;5.404;2024-02-16T12:10:51;10.05;;;5.90;;
75413;SDS011;64758;52.122;5.404;2024-02-16T12:13:19;8.07;;;5.80;;
75413;SDS011;64758;52.122;5.404;2024-02-16T12:15:49;11.05;;;6.68;;
75413;SDS011;64758;52.122;5.404;2024-02-16T12:18:24;9.83;;;5.97;;
75413;SDS011;64758;52.122;5.404;2024-02-16T12:21:02;11.35;;;5.65;;
75413;SDS011;64758;52.122;5.404;2024-02-16T12:23:31;8.32;;;5.22;;
75413;SDS011;64758;52.122;5.404;2024-02-16T12:26:01;7.57;;;5.25;;
75413;SDS011;64758;52.122;5.404;2024-02-16T12:28:29;7.93;;;4.85;;
75413;SDS011;64758;52.122;5.404;2024-02-16T12:31:00;8.53;;;5.57;;
75413;SDS011;64758;52.122;5.404;2024-02-16T12:33:29;9.45;;;5.03;;
75413;SDS011;64758;52.122;5.404;2024-02-16T12:35:56;8.00;;;3.83;;
75413;SDS011;64758;52.122;5.404;2024-02-16T12:38:23;4.68;;;2.80;;
75413;SDS011;64758;52.122;5.404;2024-02-16T12:40:50;4.65;;;2.22;;
75413;SDS011;64758;52.122;5.404;2024-02-16T12:43:17;5.60;;;2.20;;
75413;SDS011;64758;52.122;5.404;2024-02-16T12:45:45;3.22;;;1.88;;
75413;SDS011;64758;52.122;5.404;2024-02-16T12:48:11;3.33;;;2.03;;
75413;SDS011;64758;52.122;5.404;2024-02-16T12:50:41;2.75;;;1.85;;
75413;SDS011;64758;52.122;5.404;2024-02-16T12:53:08;3.25;;;1.70;;
75413;SDS011;64758;52.122;5.404;2024-02-16T12:55:35;2.20;;;1.40;;
75413;SDS011;64758;52.122;5.404;2024-02-16T12:58:02;3.70;;;1.70;;
75413;SDS011;64758;52.122;5.404;2024-02-16T13:00:29;2.70;;;1.33;;
75413;SDS011;64758;52.122;5.404;2024-02-16T13:02:56;2.15;;;1.30;;
75413;SDS011;64758;52.122;5.404;2024-02-16T13:05:23;2.15;;;1.55;;
75413;SDS011;64758;52.122;5.404;2024-02-16T13:07:50;2.03;;;1.33;;
75413;SDS011;64758;52.122;5.404;2024-02-16T13:10:16;1.70;;;0.90;;
75413;SDS011;64758;52.122;5.404;2024-02-16T13:12:43;2.75;;;1.42;;
75413;SDS011;64758;52.122;5.404;2024-02-16T13:15:10;3.10;;;1.30;;
75413;SDS011;64758;52.122;5.404;2024-02-16T13:17:53;2.42;;;1.40;;
75413;SDS011;64758;52.122;5.404;2024-02-16T13:20:22;3.50;;;1.20;;
75413;SDS011;64758;52.122;5.404;2024-02-16T13:22:48;2.35;;;1.33;;
75413;SDS011;64758;52.122;5.404;2024-02-16T13:25:15;2.75;;;1.17;;
75413;SDS011;64758;52.122;5.404;2024-02-16T13:27:42;3.20;;;1.05;;
75413;SDS011;64758;52.122;5.404;2024-02-16T13:30:09;2.22;;;1.27;;
75413;SDS011;64758;52.122;5.404;2024-02-16T13:32:36;2.03;;;1.07;;
75413;SDS011;64758;52.122;5.404;2024-02-16T13:35:06;1.73;;;1.20;;
75413;SDS011;64758;52.122;5.404;2024-02-16T13:37:33;4.57;;;1.38;;
75413;SDS011;64758;52.122;5.404;2024-02-16T13:39:59;2.60;;;1.25;;
75413;SDS011;64758;52.122;5.404;2024-02-16T13:42:27;3.75;;;1.17;;
75413;SDS011;64758;52.122;5.404;2024-02-16T13:44:54;2.00;;;0.90;;
75413;SDS011;64758;52.122;5.404;2024-02-16T13:47:21;2.90;;;1.08;;
75413;SDS011;64758;52.122;5.404;2024-02-16T13:49:49;1.95;;;1.48;;
75413;SDS011;64758;52.122;5.404;2024-02-16T13:52:17;2.45;;;1.23;;
75413;SDS011;64758;52.122;5.404;2024-02-16T13:54:43;2.58;;;1.38;;
75413;SDS011;64758;52.122;5.404;2024-02-16T13:57:10;2.23;;;1.10;;
75413;SDS011;64758;52.122;5.404;2024-02-16T13:59:36;3.00;;;1.20;;
75413;SDS011;64758;52.122;5.404;2024-02-16T14:02:03;2.30;;;1.52;;
75413;SDS011;64758;52.122;5.404;2024-02-16T14:04:30;2.53;;;1.30;;
75413;SDS011;64758;52.122;5.404;2024-02-16T14:06:57;4.10;;;1.40;;
75413;SDS011;64758;52.122;5.404;2024-02-16T14:09:24;3.23;;;1.30;;
75413;SDS011;64758;52.122;5.404;2024-02-16T14:11:59;4.15;;;1.13;;
75413;SDS011;64758;52.122;5.404;2024-02-16T14:14:26;3.33;;;1.30;;
75413;SDS011;64758;52.122;5.404;2024-02-16T14:17:03;2.92;;;1.20;;
75413;SDS011;64758;52.122;5.404;2024-02-16T14:19:30;2.85;;;1.30;;
75413;SDS011;64758;52.122;5.404;2024-02-16T14:21:57;3.17;;;1.43;;
75413;SDS011;64758;52.122;5.404;2024-02-16T14:24:24;2.45;;;1.58;;
75413;SDS011;64758;52.122;5.404;2024-02-16T14:26:51;2.90;;;1.63;;
75413;SDS011;64758;52.122;5.404;2024-02-16T14:29:20;5.97;;;1.70;;
75413;SDS011;64758;52.122;5.404;2024-02-16T14:31:47;4.97;;;1.70;;
75413;SDS011;64758;52.122;5.404;2024-02-16T14:34:15;3.47;;;1.40;;
75413;SDS011;64758;52.122;5.404;2024-02-16T14:36:42;3.10;;;1.50;;
75413;SDS011;64758;52.122;5.404;2024-02-16T14:39:09;3.17;;;1.98;;
75413;SDS011;64758;52.122;5.404;2024-02-16T14:41:37;4.35;;;1.67;;
75413;SDS011;64758;52.122;5.404;2024-02-16T14:44:04;2.45;;;1.55;;
75413;SDS011;64758;52.122;5.404;2024-02-16T14:46:31;3.43;;;1.47;;
75413;SDS011;64758;52.122;5.404;2024-02-16T14:48:57;3.63;;;1.60;;
75413;SDS011;64758;52.122;5.404;2024-02-16T14:51:24;3.72;;;1.95;;
75413;SDS011;64758;52.122;5.404;2024-02-16T14:53:51;2.13;;;1.50;;
75413;SDS011;64758;52.122;5.404;2024-02-16T14:56:18;3.25;;;1.50;;
75413;SDS011;64758;52.122;5.404;2024-02-16T14:58:48;2.43;;;2.00;;